createdAt,value
2018-12-20T00:01:51.512Z,7.70
2018-12-20T00:04:20.064Z,7.70
2018-12-20T00:06:48.676Z,7.70
2018-12-20T00:09:17.731Z,7.60
2018-12-20T00:11:46.205Z,7.60
2018-12-20T00:14:14.742Z,7.60
2018-12-20T00:16:43.452Z,7.60
2018-12-20T00:19:12.171Z,7.60
2018-12-20T00:21:40.694Z,7.70
2018-12-20T00:24:09.363Z,7.70
2018-12-20T00:26:38.109Z,7.70
2018-12-20T00:29:06.749Z,7.80
2018-12-20T00:31:35.258Z,7.80
2018-12-20T00:34:03.828Z,7.90
2018-12-20T00:36:32.528Z,7.90
2018-12-20T00:39:01.079Z,7.90
2018-12-20T00:41:29.639Z,7.90
2018-12-20T00:43:58.126Z,7.90
2018-12-20T00:46:26.641Z,7.90
2018-12-20T00:48:55.107Z,7.90
2018-12-20T00:51:23.561Z,7.90
2018-12-20T00:53:52.138Z,7.90
2018-12-20T00:56:20.658Z,8.00
2018-12-20T00:58:49.161Z,8.00
2018-12-20T01:01:17.790Z,8.00
2018-12-20T01:03:46.303Z,8.00
2018-12-20T01:06:14.973Z,8.00
2018-12-20T01:08:43.611Z,8.10
2018-12-20T01:11:12.199Z,8.10
2018-12-20T01:13:40.699Z,8.10
2018-12-20T01:16:09.151Z,8.10
2018-12-20T01:18:37.722Z,8.20
2018-12-20T01:21:06.237Z,8.20
2018-12-20T01:23:34.784Z,8.20
2018-12-20T01:26:03.377Z,8.30
2018-12-20T01:28:32.303Z,8.30
2018-12-20T01:31:00.865Z,8.30
2018-12-20T01:33:29.664Z,8.20
2018-12-20T01:35:58.267Z,8.20
2018-12-20T01:38:26.985Z,8.10
2018-12-20T01:40:55.703Z,8.10
2018-12-20T01:43:24.326Z,8.00
2018-12-20T01:45:53.521Z,8.00
2018-12-20T01:48:22.101Z,8.00
2018-12-20T01:50:50.660Z,7.90
2018-12-20T01:53:19.343Z,7.90
2018-12-20T01:55:47.959Z,7.80
2018-12-20T01:58:16.604Z,7.80
2018-12-20T02:00:45.169Z,7.80
2018-12-20T02:03:13.713Z,7.70
2018-12-20T02:05:42.257Z,7.70
2018-12-20T02:08:10.885Z,7.70
2018-12-20T02:10:39.692Z,7.60
2018-12-20T02:13:08.376Z,7.60
2018-12-20T02:15:37.168Z,7.60
2018-12-20T02:18:06.003Z,7.50
2018-12-20T02:20:34.482Z,7.50
2018-12-20T02:23:02.925Z,7.50
2018-12-20T02:25:31.394Z,7.60
2018-12-20T02:28:00.475Z,7.50
2018-12-20T02:30:29.211Z,7.50
2018-12-20T02:32:57.907Z,7.50
2018-12-20T02:35:26.642Z,7.50
2018-12-20T02:37:55.777Z,7.50
2018-12-20T02:40:24.497Z,7.50
2018-12-20T02:42:53.087Z,7.50
2018-12-20T02:45:21.749Z,7.50
2018-12-20T02:47:50.418Z,7.50
2018-12-20T02:50:19.066Z,7.50
2018-12-20T02:52:48.095Z,7.50
2018-12-20T02:55:16.562Z,7.50
2018-12-20T02:57:45.097Z,7.50
2018-12-20T03:00:14.030Z,7.50
2018-12-20T03:02:42.707Z,7.50
2018-12-20T03:05:11.226Z,7.50
2018-12-20T03:07:40.007Z,7.50
2018-12-20T03:10:08.977Z,7.50
2018-12-20T03:12:37.963Z,7.50
2018-12-20T03:15:07.234Z,7.50
2018-12-20T03:17:36.394Z,7.50
2018-12-20T03:20:06.067Z,7.60
2018-12-20T03:22:35.080Z,7.60
2018-12-20T03:25:05.717Z,7.60
2018-12-20T03:27:34.169Z,7.60
2018-12-20T03:30:03.048Z,7.60
2018-12-20T03:32:31.637Z,7.60
2018-12-20T03:35:00.029Z,7.70
2018-12-20T03:37:28.717Z,7.70
2018-12-20T03:39:57.291Z,7.80
2018-12-20T03:42:25.862Z,7.80
2018-12-20T03:44:54.366Z,7.80
2018-12-20T03:47:23.013Z,7.80
2018-12-20T03:49:51.704Z,7.90
2018-12-20T03:52:20.664Z,7.90
2018-12-20T03:54:49.717Z,8.00
2018-12-20T03:57:18.364Z,8.00
2018-12-20T03:59:46.979Z,8.00
2018-12-20T04:02:15.610Z,8.00
2018-12-20T04:04:44.284Z,8.10
2018-12-20T04:07:13.085Z,8.10
2018-12-20T04:09:41.782Z,8.10
2018-12-20T04:12:11.089Z,8.20
2018-12-20T04:14:39.828Z,8.20
2018-12-20T04:17:08.744Z,8.20
2018-12-20T04:19:37.312Z,8.20
2018-12-20T04:22:05.926Z,8.20
2018-12-20T04:24:34.503Z,8.20
2018-12-20T04:27:02.988Z,8.20
2018-12-20T04:29:31.678Z,8.20
2018-12-20T04:32:00.537Z,8.30
2018-12-20T04:34:29.482Z,8.30
2018-12-20T04:36:58.597Z,8.30
2018-12-20T04:39:27.200Z,8.30
2018-12-20T04:41:56.014Z,8.30
2018-12-20T04:44:24.848Z,8.30
2018-12-20T04:46:53.649Z,8.30
2018-12-20T04:49:22.317Z,8.30
2018-12-20T04:51:50.919Z,8.30
2018-12-20T04:54:19.663Z,8.30
2018-12-20T04:56:48.228Z,8.30
2018-12-20T04:59:18.014Z,8.30
2018-12-20T05:01:46.892Z,8.30
2018-12-20T05:04:15.700Z,8.30
2018-12-20T05:06:44.570Z,8.20
2018-12-20T05:09:13.573Z,8.20
2018-12-20T05:11:42.505Z,8.10
2018-12-20T05:14:11.473Z,8.10
2018-12-20T05:16:40.187Z,8.00
2018-12-20T05:19:09.038Z,7.80
2018-12-20T05:21:37.544Z,7.80
2018-12-20T05:24:05.957Z,7.60
2018-12-20T05:26:34.746Z,7.60
2018-12-20T05:29:03.352Z,7.50
2018-12-20T05:31:31.835Z,7.50
2018-12-20T05:34:00.443Z,7.50
2018-12-20T05:36:29.111Z,7.40
2018-12-20T05:38:57.765Z,7.40
2018-12-20T05:41:26.586Z,7.40
2018-12-20T05:43:55.020Z,7.40
2018-12-20T05:46:23.662Z,7.40
2018-12-20T05:48:52.633Z,7.40
2018-12-20T05:51:21.757Z,7.30
2018-12-20T05:53:50.436Z,7.30
2018-12-20T05:56:19.393Z,7.30
2018-12-20T05:58:48.071Z,7.20
2018-12-20T06:01:16.606Z,7.20
2018-12-20T06:03:45.245Z,7.20
2018-12-20T06:06:14.102Z,7.10
2018-12-20T06:08:42.707Z,7.10
2018-12-20T06:11:11.297Z,7.10
2018-12-20T06:13:41.023Z,7.10
2018-12-20T06:16:12.960Z,7.10
2018-12-20T06:18:40.306Z,7.10
2018-12-20T06:21:09.069Z,7.10
2018-12-20T06:23:37.596Z,7.10
2018-12-20T06:26:06.236Z,7.10
2018-12-20T06:28:34.882Z,7.00
2018-12-20T06:31:03.431Z,7.00
2018-12-20T06:33:31.867Z,7.00
2018-12-20T06:36:00.471Z,6.90
2018-12-20T06:38:28.954Z,7.00
2018-12-20T06:40:57.482Z,6.90
2018-12-20T06:43:25.925Z,6.90
2018-12-20T06:45:54.473Z,6.90
2018-12-20T06:48:23.020Z,7.00
2018-12-20T06:50:51.498Z,7.00
2018-12-20T06:53:20.041Z,7.00
2018-12-20T06:55:48.574Z,7.00
2018-12-20T06:58:17.097Z,7.00
2018-12-20T07:00:45.578Z,7.10
2018-12-20T07:03:14.011Z,7.00
2018-12-20T07:05:42.456Z,7.00
2018-12-20T07:08:10.873Z,7.00
2018-12-20T07:10:39.336Z,7.00
2018-12-20T07:13:07.791Z,7.00
2018-12-20T07:15:36.218Z,7.00
2018-12-20T07:18:04.679Z,7.10
2018-12-20T07:20:33.171Z,7.10
2018-12-20T07:23:01.589Z,7.10
2018-12-20T07:25:29.986Z,7.10
2018-12-20T07:27:58.418Z,7.10
2018-12-20T07:30:26.851Z,7.10
2018-12-20T07:32:55.577Z,7.00
2018-12-20T07:35:24.585Z,7.00
2018-12-20T07:37:54.015Z,7.00
2018-12-20T07:40:23.105Z,7.10
2018-12-20T07:42:51.546Z,7.10
2018-12-20T07:45:19.977Z,7.10
2018-12-20T07:47:49.365Z,7.10
2018-12-20T07:50:17.810Z,7.10
2018-12-20T07:52:46.299Z,7.20
2018-12-20T07:55:15.347Z,7.20
2018-12-20T07:57:44.145Z,7.20
2018-12-20T08:00:12.579Z,7.30
2018-12-20T08:02:41.127Z,7.30
2018-12-20T08:05:09.561Z,7.30
2018-12-20T08:07:37.979Z,7.30
2018-12-20T08:10:08.991Z,7.30
2018-12-20T08:12:37.412Z,7.20
2018-12-20T08:15:05.944Z,7.20
2018-12-20T08:17:34.659Z,7.20
2018-12-20T08:20:03.290Z,7.20
2018-12-20T08:22:31.732Z,7.10
2018-12-20T08:25:00.286Z,7.10
2018-12-20T08:27:29.064Z,7.10
2018-12-20T08:29:57.494Z,7.10
2018-12-20T08:32:25.932Z,7.10
2018-12-20T08:34:54.383Z,7.10
2018-12-20T08:37:22.841Z,7.20
2018-12-20T08:39:51.299Z,7.20
2018-12-20T08:42:19.796Z,7.20
2018-12-20T08:44:48.518Z,7.30
2018-12-20T08:47:17.048Z,7.30
2018-12-20T08:49:45.492Z,7.30
2018-12-20T08:52:13.927Z,7.30
2018-12-20T08:54:42.349Z,7.30
2018-12-20T08:57:10.868Z,7.40
2018-12-20T08:59:39.394Z,7.40
2018-12-20T09:02:08.014Z,7.30
2018-12-20T09:04:36.464Z,7.30
2018-12-20T09:07:04.991Z,7.30
2018-12-20T09:09:33.794Z,7.30
2018-12-20T09:12:03.181Z,7.20
2018-12-20T09:14:31.856Z,7.30
2018-12-20T09:17:03.081Z,7.30
2018-12-20T09:19:31.075Z,7.30
2018-12-20T09:22:00.086Z,7.30
2018-12-20T09:24:28.515Z,7.30
2018-12-20T09:26:56.954Z,7.20
2018-12-20T09:29:25.388Z,7.20
2018-12-20T09:31:53.832Z,7.30
2018-12-20T09:34:22.279Z,7.30
2018-12-20T09:36:50.809Z,7.30
2018-12-20T09:39:19.863Z,7.40
2018-12-20T09:41:48.379Z,7.30
2018-12-20T09:44:16.827Z,7.30
2018-12-20T09:46:45.263Z,7.30
2018-12-20T09:49:14.055Z,7.30
2018-12-20T09:51:42.496Z,7.30
2018-12-20T09:54:10.943Z,7.30
2018-12-20T09:56:39.345Z,7.30
2018-12-20T09:59:07.768Z,7.30
2018-12-20T10:01:36.250Z,7.40
2018-12-20T10:04:04.812Z,7.40
2018-12-20T10:06:33.228Z,7.40
2018-12-20T10:09:01.833Z,7.40
2018-12-20T10:11:30.476Z,7.50
2018-12-20T10:13:58.907Z,7.50
2018-12-20T10:16:27.499Z,7.40
2018-12-20T10:18:55.949Z,7.50
2018-12-20T10:21:24.399Z,7.40
2018-12-20T10:23:52.830Z,7.50
2018-12-20T10:26:21.317Z,7.50
2018-12-20T10:28:49.745Z,7.50
2018-12-20T10:31:18.255Z,7.60
2018-12-20T10:33:46.704Z,7.60
2018-12-20T10:36:15.136Z,7.60
2018-12-20T10:38:43.590Z,7.60
2018-12-20T10:41:12.680Z,7.60
2018-12-20T10:43:41.092Z,7.60
2018-12-20T10:46:09.691Z,7.70
2018-12-20T10:48:38.139Z,7.70
2018-12-20T10:51:06.622Z,7.70
2018-12-20T10:53:35.272Z,7.80
2018-12-20T10:56:04.423Z,7.80
2018-12-20T10:58:32.926Z,7.80
2018-12-20T11:01:07.435Z,7.90
2018-12-20T11:03:41.187Z,7.80
2018-12-20T11:06:15.459Z,7.80
2018-12-20T11:08:49.206Z,7.80
2018-12-20T11:11:20.858Z,7.90
2018-12-20T11:13:57.237Z,7.90
2018-12-20T11:16:25.765Z,7.80
2018-12-20T11:18:54.531Z,7.90
2018-12-20T11:21:23.059Z,7.90
2018-12-20T11:23:51.571Z,8.00
2018-12-20T11:26:20.167Z,8.10
2018-12-20T11:28:49.018Z,8.10
2018-12-20T11:31:19.249Z,8.20
2018-12-20T11:33:47.878Z,8.30
2018-12-20T11:36:16.518Z,8.40
2018-12-20T11:38:45.587Z,8.50
2018-12-20T11:41:14.327Z,8.60
2018-12-20T11:43:43.324Z,8.70
2018-12-20T11:46:11.907Z,8.90
2018-12-20T11:48:40.730Z,9.10
2018-12-20T11:51:10.092Z,9.20
2018-12-20T11:53:38.707Z,9.30
2018-12-20T11:56:07.873Z,9.30
2018-12-20T11:58:36.464Z,9.40
2018-12-20T12:01:05.116Z,9.40
2018-12-20T12:03:33.717Z,9.40
2018-12-20T12:06:02.463Z,9.50
2018-12-20T12:08:31.288Z,9.50
2018-12-20T12:10:59.895Z,9.50
2018-12-20T12:13:28.923Z,9.50
2018-12-20T12:15:57.471Z,9.40
2018-12-20T12:18:26.310Z,9.40
2018-12-20T12:20:54.804Z,9.40
2018-12-20T12:23:24.604Z,9.40
2018-12-20T12:25:53.811Z,9.50
2018-12-20T12:28:22.419Z,9.40
2018-12-20T12:30:50.926Z,9.40
2018-12-20T12:33:19.471Z,9.40
2018-12-20T12:35:48.063Z,9.50
2018-12-20T12:38:16.521Z,9.60
2018-12-20T12:40:45.694Z,9.70
2018-12-20T12:43:14.139Z,9.90
2018-12-20T12:45:42.664Z,10.00
2018-12-20T12:48:11.763Z,10.00
2018-12-20T12:50:40.289Z,10.20
2018-12-20T12:53:08.782Z,10.20
2018-12-20T12:55:37.268Z,10.40
2018-12-20T12:58:05.751Z,10.30
2018-12-20T13:00:34.202Z,10.20
2018-12-20T13:03:02.863Z,10.10
2018-12-20T13:05:31.318Z,10.10
2018-12-20T13:07:59.842Z,10.10
2018-12-20T13:10:29.043Z,10.00
2018-12-20T13:12:57.529Z,10.00
2018-12-20T13:15:25.983Z,9.90
2018-12-20T13:17:54.443Z,9.90
2018-12-20T13:20:22.883Z,9.90
2018-12-20T13:22:51.354Z,9.90
2018-12-20T13:25:19.779Z,9.80
2018-12-20T13:27:48.339Z,9.90
2018-12-20T13:30:16.775Z,9.90
2018-12-20T13:32:45.292Z,9.90
2018-12-20T13:35:14.249Z,10.00
2018-12-20T13:37:42.703Z,9.90
2018-12-20T13:40:11.139Z,9.90
2018-12-20T13:42:39.575Z,9.80
2018-12-20T13:45:08.180Z,9.80
2018-12-20T13:47:36.860Z,9.80
2018-12-20T13:50:07.095Z,9.80
2018-12-20T13:52:35.645Z,9.70
2018-12-20T13:55:04.806Z,9.80
2018-12-20T13:57:33.382Z,9.80
2018-12-20T14:00:01.871Z,9.80
2018-12-20T14:02:30.419Z,9.80
2018-12-20T14:04:58.968Z,9.80
2018-12-20T14:07:27.478Z,9.80
2018-12-20T14:09:56.042Z,9.80
2018-12-20T14:12:24.805Z,9.80
2018-12-20T14:14:53.358Z,9.80
2018-12-20T14:17:23.182Z,9.80
2018-12-20T14:19:51.756Z,9.80
2018-12-20T14:22:20.196Z,9.80
2018-12-20T14:24:48.715Z,9.80
2018-12-20T14:27:17.168Z,9.70
2018-12-20T14:29:45.661Z,9.70
2018-12-20T14:32:14.339Z,9.60
2018-12-20T14:34:44.349Z,9.60
2018-12-20T14:37:12.887Z,9.50
2018-12-20T14:39:41.419Z,9.50
2018-12-20T14:42:10.141Z,9.50
2018-12-20T14:44:38.596Z,9.40
2018-12-20T14:47:07.080Z,9.40
2018-12-20T14:49:35.753Z,9.40
2018-12-20T14:52:04.316Z,9.30
2018-12-20T14:54:33.574Z,9.30
2018-12-20T14:57:02.084Z,9.20
2018-12-20T14:59:32.360Z,9.20
2018-12-20T15:02:01.054Z,9.10
2018-12-20T15:04:29.536Z,9.10
2018-12-20T15:06:58.083Z,9.10
2018-12-20T15:09:26.683Z,9.10
2018-12-20T15:11:55.292Z,9.10
2018-12-20T15:14:24.804Z,9.10
2018-12-20T15:16:53.285Z,9.10
2018-12-20T15:19:22.499Z,9.10
2018-12-20T15:21:51.006Z,9.10
2018-12-20T15:24:19.489Z,9.00
2018-12-20T15:26:47.936Z,9.00
2018-12-20T15:29:17.102Z,8.90
2018-12-20T15:31:53.199Z,9.00
2018-12-20T15:34:16.110Z,8.90
2018-12-20T15:36:44.529Z,8.90
2018-12-20T15:39:13.003Z,8.90
2018-12-20T15:41:41.526Z,8.90
2018-12-20T15:44:10.042Z,8.90
2018-12-20T15:46:38.620Z,8.90
2018-12-20T15:49:08.915Z,8.90
2018-12-20T15:51:37.621Z,8.90
2018-12-20T15:54:06.130Z,8.90
2018-12-20T15:56:34.637Z,8.90
2018-12-20T15:59:03.170Z,8.90
2018-12-20T16:01:31.653Z,8.90
2018-12-20T16:04:00.211Z,8.90
2018-12-20T16:06:28.876Z,8.80
2018-12-20T16:08:57.463Z,8.90
2018-12-20T16:11:25.912Z,8.90
2018-12-20T16:13:54.408Z,8.80
2018-12-20T16:16:22.845Z,8.90
2018-12-20T16:18:51.384Z,8.90
2018-12-20T16:21:19.848Z,8.90
2018-12-20T16:23:48.426Z,8.90
2018-12-20T16:26:17.032Z,8.90
2018-12-20T16:28:45.716Z,9.00
2018-12-20T16:31:14.570Z,9.00
2018-12-20T16:33:43.248Z,9.00
2018-12-20T16:36:11.785Z,9.00
2018-12-20T16:38:40.382Z,9.10
2018-12-20T16:41:08.979Z,9.10
2018-12-20T16:43:37.506Z,9.10
2018-12-20T16:46:06.313Z,9.20
2018-12-20T16:48:34.919Z,9.20
2018-12-20T16:51:03.518Z,9.20
2018-12-20T16:53:32.512Z,9.20
2018-12-20T16:56:00.991Z,9.20
2018-12-20T16:58:29.533Z,9.10
2018-12-20T17:00:57.999Z,9.10
2018-12-20T17:03:26.528Z,9.10
2018-12-20T17:05:55.721Z,9.10
2018-12-20T17:08:25.290Z,9.00
2018-12-20T17:10:54.232Z,9.10
2018-12-20T17:13:23.323Z,9.00
2018-12-20T17:15:51.788Z,9.00
2018-12-20T17:18:20.219Z,8.90
2018-12-20T17:20:48.719Z,8.90
2018-12-20T17:23:18.052Z,8.80
2018-12-20T17:25:48.184Z,8.70
2018-12-20T17:28:16.669Z,8.60
2018-12-20T17:30:45.240Z,8.50
2018-12-20T17:33:13.733Z,8.40
2018-12-20T17:35:42.155Z,8.40
2018-12-20T17:38:10.739Z,8.30
2018-12-20T17:40:40.057Z,8.20
2018-12-20T17:43:08.518Z,8.20
2018-12-20T17:45:37.030Z,8.20
2018-12-20T17:48:05.531Z,8.20
2018-12-20T17:50:34.086Z,8.20
2018-12-20T17:53:02.567Z,8.20
2018-12-20T17:55:31.031Z,8.20
2018-12-20T17:57:59.458Z,8.10
2018-12-20T18:00:28.811Z,8.10
2018-12-20T18:02:57.283Z,8.00
2018-12-20T18:05:25.853Z,8.00
2018-12-20T18:07:54.278Z,7.90
2018-12-20T18:10:23.233Z,7.90
2018-12-20T18:12:51.681Z,7.90
2018-12-20T18:15:20.200Z,7.90
2018-12-20T18:17:49.286Z,7.90
2018-12-20T18:20:17.863Z,7.90
2018-12-20T18:22:46.276Z,7.90
2018-12-20T18:25:14.744Z,7.90
2018-12-20T18:27:43.420Z,7.90
2018-12-20T18:30:12.262Z,7.90
2018-12-20T18:32:40.791Z,7.90
2018-12-20T18:35:09.277Z,7.90
2018-12-20T18:37:38.393Z,7.90
2018-12-20T18:40:08.300Z,7.90
2018-12-20T18:42:36.763Z,8.00
2018-12-20T18:45:06.582Z,7.90
2018-12-20T18:47:35.003Z,7.80
2018-12-20T18:50:03.895Z,7.80
2018-12-20T18:52:32.330Z,7.80
2018-12-20T18:55:00.990Z,7.80
2018-12-20T18:57:29.558Z,7.90
2018-12-20T18:59:58.081Z,7.90
2018-12-20T19:02:27.349Z,8.00
2018-12-20T19:04:55.842Z,8.10
2018-12-20T19:07:24.274Z,8.20
2018-12-20T19:09:52.739Z,8.20
2018-12-20T19:12:21.246Z,8.30
2018-12-20T19:14:49.845Z,8.40
2018-12-20T19:17:19.099Z,8.40
2018-12-20T19:19:56.020Z,8.40
2018-12-20T19:22:19.499Z,8.40
2018-12-20T19:24:47.967Z,8.50
2018-12-20T19:27:16.438Z,8.50
2018-12-20T19:29:44.948Z,8.50
2018-12-20T19:32:13.428Z,8.50
2018-12-20T19:34:41.867Z,8.50
2018-12-20T19:37:11.160Z,8.50
2018-12-20T19:39:39.721Z,8.50
2018-12-20T19:42:13.619Z,8.50
2018-12-20T19:44:42.151Z,8.60
2018-12-20T19:47:10.665Z,8.60
2018-12-20T19:49:39.138Z,8.60
2018-12-20T19:52:10.683Z,8.60
2018-12-20T19:54:39.122Z,8.60
2018-12-20T19:57:07.635Z,8.60
2018-12-20T19:59:38.732Z,8.70
2018-12-20T20:02:07.391Z,8.70
2018-12-20T20:04:35.849Z,8.70
2018-12-20T20:07:04.542Z,8.70
2018-12-20T20:09:33.658Z,8.70
2018-12-20T20:12:02.412Z,8.70
2018-12-20T20:14:30.891Z,8.70
2018-12-20T20:17:00.407Z,8.60
2018-12-20T20:19:28.847Z,8.60
2018-12-20T20:21:57.453Z,8.70
2018-12-20T20:24:26.064Z,8.70
2018-12-20T20:26:55.752Z,8.70
2018-12-20T20:29:24.534Z,8.60
2018-12-20T20:31:53.211Z,8.60
2018-12-20T20:34:21.915Z,8.60
2018-12-20T20:36:50.340Z,8.60
2018-12-20T20:39:18.837Z,8.60
2018-12-20T20:41:47.278Z,8.60
2018-12-20T20:44:16.215Z,8.60
2018-12-20T20:46:44.705Z,8.60
2018-12-20T20:49:13.930Z,8.60
2018-12-20T20:51:42.486Z,8.60
2018-12-20T20:54:10.946Z,8.60
2018-12-20T20:56:39.386Z,8.60
2018-12-20T20:59:07.819Z,8.50
2018-12-20T21:01:36.239Z,8.50
2018-12-20T21:04:06.558Z,8.50
2018-12-20T21:06:35.090Z,8.50
2018-12-20T21:09:05.580Z,8.50
2018-12-20T21:11:34.040Z,8.50
2018-12-20T21:14:02.610Z,8.40
2018-12-20T21:16:31.099Z,8.40
2018-12-20T21:18:59.668Z,8.40
2018-12-20T21:21:28.244Z,8.40
2018-12-20T21:23:56.820Z,8.40
2018-12-20T21:26:25.292Z,8.40
2018-12-20T21:28:53.800Z,8.40
2018-12-20T21:31:22.383Z,8.30
2018-12-20T21:33:51.029Z,8.30
2018-12-20T21:36:19.640Z,8.30
2018-12-20T21:38:48.093Z,8.30
2018-12-20T21:41:16.533Z,8.30
2018-12-20T21:43:45.139Z,8.30
2018-12-20T21:46:14.362Z,8.30
2018-12-20T21:48:42.795Z,8.30
2018-12-20T21:51:11.267Z,8.20
2018-12-20T21:53:39.830Z,8.30
2018-12-20T21:56:08.498Z,8.30
2018-12-20T21:58:36.967Z,8.30
2018-12-20T22:01:05.484Z,8.30
2018-12-20T22:03:34.119Z,8.20
2018-12-20T22:06:02.658Z,8.20
2018-12-20T22:08:31.118Z,8.20
2018-12-20T22:10:59.535Z,8.20
2018-12-20T22:13:27.995Z,8.20
2018-12-20T22:15:56.457Z,8.20
2018-12-20T22:18:24.980Z,8.20
2018-12-20T22:20:53.446Z,8.30
2018-12-20T22:23:21.928Z,8.30
2018-12-20T22:25:50.322Z,8.30
2018-12-20T22:28:18.783Z,8.30
2018-12-20T22:30:47.232Z,8.30
2018-12-20T22:33:15.642Z,8.30
2018-12-20T22:35:44.093Z,8.30
2018-12-20T22:38:13.491Z,8.30
2018-12-20T22:40:42.761Z,8.30
2018-12-20T22:43:11.334Z,8.30
2018-12-20T22:45:39.800Z,8.30
2018-12-20T22:48:08.404Z,8.40
2018-12-20T22:50:37.096Z,8.40
2018-12-20T22:53:07.214Z,8.40
2018-12-20T22:55:35.835Z,8.40
2018-12-20T22:58:04.274Z,8.40
2018-12-20T23:00:32.705Z,8.50
2018-12-20T23:03:01.151Z,8.50
2018-12-20T23:05:29.587Z,8.50
2018-12-20T23:07:58.900Z,8.60
2018-12-20T23:10:27.331Z,8.60
2018-12-20T23:12:55.755Z,8.70
2018-12-20T23:15:24.219Z,8.70
2018-12-20T23:17:52.658Z,8.70
2018-12-20T23:20:21.131Z,8.70
2018-12-20T23:22:49.588Z,8.80
2018-12-20T23:25:18.061Z,8.80
2018-12-20T23:27:46.571Z,8.80
2018-12-20T23:30:15.257Z,8.70
2018-12-20T23:32:43.752Z,8.80
2018-12-20T23:35:12.337Z,8.80
2018-12-20T23:37:40.758Z,8.70
2018-12-20T23:40:09.345Z,8.80
2018-12-20T23:42:37.854Z,8.80
2018-12-20T23:45:06.429Z,8.80
2018-12-20T23:47:35.603Z,8.70
2018-12-20T23:50:04.680Z,8.70
2018-12-20T23:52:33.149Z,8.70
2018-12-20T23:55:01.662Z,8.70
2018-12-20T23:57:30.155Z,8.70
2018-12-20T23:59:58.586Z,8.70
